Time;durP1;ratioP1;P1;durP2;ratioP2;P2;SDS_P1;SDS_P2;PMS_P1;PMS_P2;Temp;Humidity;BMP_temperature;BMP_pressure;BME280_temperature;BME280_humidity;BME280_pressure;Samples;Min_cycle;Max_cycle;Signal;HPM_P1;HPM_P2
2021/06/10 00:01:44;;;;;;;3.88;3.50;;;;;;;19.61;61.35;98668.41;4996118;28;20105;-87
2021/06/10 00:04:10;;;;;;;8.75;4.78;;;;;;;19.64;61.26;98664.22;4976905;28;20038;-85
2021/06/10 00:06:35;;;;;;;4.03;3.08;;;;;;;19.62;61.42;98664.56;4991468;28;20508;-87
2021/06/10 00:09:01;;;;;;;3.67;3.38;;;;;;;19.64;61.55;98661.50;4995478;28;20033;-85
2021/06/10 00:11:26;;;;;;;5.00;3.92;;;;;;;19.63;61.44;98660.72;4995941;28;20025;-87
2021/06/10 00:13:51;;;;;;;6.22;3.92;;;;;;;19.60;61.54;98657.94;4987648;28;20032;-88
2021/06/10 00:16:17;;;;;;;4.22;3.42;;;;;;;19.58;61.60;98652.84;4995136;28;20037;-89
2021/06/10 00:18:43;;;;;;;3.50;3.20;;;;;;;19.59;61.63;98654.44;4994972;28;20041;-88
2021/06/10 00:21:09;;;;;;;3.65;3.35;;;;;;;19.56;61.88;98643.50;4995534;28;20087;-88
2021/06/10 00:23:35;;;;;;;4.00;3.28;;;;;;;19.51;61.90;98647.22;4992891;28;20430;-88
2021/06/10 00:26:00;;;;;;;6.90;3.25;;;;;;;19.52;61.76;98648.81;4995166;28;20030;-85
2021/06/10 00:28:26;;;;;;;3.55;3.25;;;;;;;19.50;61.70;98643.72;4995064;28;20084;-85
2021/06/10 00:30:51;;;;;;;4.63;4.22;;;;;;;19.49;61.95;98644.06;4995239;28;20053;-82
2021/06/10 00:33:16;;;;;;;7.85;3.50;;;;;;;19.47;62.09;98641.72;4994198;28;20025;-84
2021/06/10 00:35:42;;;;;;;3.70;3.40;;;;;;;19.48;62.10;98639.78;4994861;28;20052;-85
2021/06/10 00:38:07;;;;;;;4.53;3.67;;;;;;;19.47;61.89;98636.28;4994345;28;20033;-83
2021/06/10 00:40:35;;;;;;;6.07;3.95;;;;;;;19.47;61.96;98635.47;4994444;28;20057;-83
2021/06/10 00:43:00;;;;;;;4.05;3.65;;;;;;;19.44;61.99;98630.75;4995001;28;20022;-86
2021/06/10 00:45:27;;;;;;;4.05;3.65;;;;;;;19.43;62.00;98627.28;4994561;28;20022;-87
2021/06/10 00:47:54;;;;;;;5.05;3.85;;;;;;;19.40;62.02;98627.94;4993744;28;20429;-86
2021/06/10 00:50:33;;;;;;;4.13;3.72;;;;;;;19.40;61.94;98632.59;4989966;28;20087;-85
2021/06/10 00:52:59;;;;;;;3.60;3.28;;;;;;;19.35;62.05;98628.19;4994361;28;20038;-86
2021/06/10 00:55:25;;;;;;;6.78;4.18;;;;;;;19.32;62.53;98631.59;4994356;28;20042;-89
2021/06/10 00:57:51;;;;;;;3.78;3.42;;;;;;;19.27;62.86;98624.47;4995271;28;20064;-88
2021/06/10 01:00:18;;;;;;;4.85;4.10;;;;;;;19.25;62.79;98618.63;4994676;28;20026;-89
2021/06/10 01:02:44;;;;;;;4.78;3.80;;;;;;;19.22;63.02;98616.59;4994146;28;20400;-85
2021/06/10 01:05:10;;;;;;;4.90;3.92;;;;;;;19.21;62.97;98620.44;4993352;28;20030;-82
2021/06/10 01:08:05;;;;;;;5.38;3.67;;;;;;;19.18;63.20;98621.91;4993989;28;20123;-80
2021/06/10 01:10:40;;;;;;;5.05;3.67;;;;;;;19.17;63.13;98617.63;4993850;28;20034;-80
2021/06/10 01:13:13;;;;;;;4.05;3.75;;;;;;;19.16;63.41;98620.69;4985776;28;20073;-83
2021/06/10 01:15:41;;;;;;;3.78;3.40;;;;;;;19.14;63.36;98615.63;4974824;28;20030;-83
2021/06/10 01:18:09;;;;;;;4.10;3.70;;;;;;;19.14;63.05;98621.03;4992273;28;20025;-82
2021/06/10 01:20:35;;;;;;;4.28;3.88;;;;;;;19.12;63.34;98620.59;4993806;28;20064;-81
2021/06/10 01:23:35;;;;;;;4.82;4.13;;;;;;;19.11;63.45;98615.50;4993636;28;20269;-84
2021/06/10 01:26:26;;;;;;;4.47;4.07;;;;;;;19.09;63.52;98612.34;4994166;28;20029;-84
2021/06/10 01:28:52;;;;;;;4.55;4.15;;;;;;;19.03;63.63;98615.31;4982798;28;20038;-84
2021/06/10 01:31:18;;;;;;;5.47;4.35;;;;;;;19.02;63.70;98611.00;4993270;28;20428;-82
2021/06/10 01:33:57;;;;;;;5.00;4.10;;;;;;;18.99;64.26;98600.88;4979417;28;20026;-83
2021/06/10 01:36:26;;;;;;;3.95;3.58;;;;;;;18.96;64.07;98601.53;4993530;28;20029;-80
2021/06/10 01:38:55;;;;;;;6.78;4.32;;;;;;;18.95;64.38;98608.09;4993879;28;20021;-84
2021/06/10 01:41:23;;;;;;;5.13;4.18;;;;;;;18.93;64.63;98602.25;4993573;28;20018;-83
2021/06/10 01:43:51;;;;;;;5.07;3.97;;;;;;;18.93;64.44;98601.44;4994292;28;20026;-80
2021/06/10 01:46:17;;;;;;;5.13;4.60;;;;;;;18.92;64.54;98597.97;4992576;28;20034;-85
2021/06/10 01:48:47;;;;;;;6.30;4.10;;;;;;;18.91;64.60;98590.97;4993616;28;20120;-85
2021/06/10 01:51:15;;;;;;;4.28;3.88;;;;;;;18.90;64.55;98594.75;4993540;28;20038;-80
2021/06/10 01:53:44;;;;;;;4.45;3.83;;;;;;;18.90;64.83;98592.06;4992536;28;20028;-81
2021/06/10 01:56:10;;;;;;;5.47;4.30;;;;;;;18.88;65.26;98595.13;4992789;28;20104;-83
2021/06/10 01:58:42;;;;;;;5.07;4.57;;;;;;;18.88;65.03;98583.47;4993316;28;20072;-84
2021/06/10 02:01:08;;;;;;;5.25;3.90;;;;;;;18.87;64.77;98595.44;5003213;28;20539;-86
2021/06/10 02:03:34;;;;;;;4.38;3.92;;;;;;;18.85;64.68;98589.59;4985135;28;20037;-87
2021/06/10 02:06:01;;;;;;;4.38;4.00;;;;;;;18.84;64.84;98594.19;4994017;28;20065;-86
2021/06/10 02:08:27;;;;;;;4.40;4.10;;;;;;;18.84;64.87;98598.84;4993415;28;20477;-84
2021/06/10 02:10:55;;;;;;;8.65;4.30;;;;;;;18.82;64.76;98592.97;4993170;28;20034;-85
2021/06/10 02:13:30;;;;;;;5.43;4.70;;;;;;;18.82;64.95;98604.59;4993335;28;20064;-84
2021/06/10 02:16:06;;;;;;;5.90;5.30;;;;;;;18.82;64.68;98609.22;4992888;28;20080;-85
2021/06/10 02:18:33;;;;;;;5.15;4.70;;;;;;;18.80;64.72;98600.66;4994612;28;20054;-84
2021/06/10 02:21:00;;;;;;;5.07;4.63;;;;;;;18.79;64.57;98602.56;4995906;28;20080;-86
2021/06/10 02:23:26;;;;;;;5.47;4.47;;;;;;;18.80;64.42;98603.38;4992794;28;20053;-86
2021/06/10 02:25:51;;;;;;;4.65;4.25;;;;;;;18.80;64.51;98601.44;4992917;28;20036;-83
2021/06/10 02:28:17;;;;;;;4.55;4.15;;;;;;;18.76;64.24;98594.34;4993129;28;20484;-84
2021/06/10 02:30:42;;;;;;;5.35;3.92;;;;;;;18.73;64.71;98602.00;4994498;28;20076;-83
2021/06/10 02:33:08;;;;;;;5.22;4.22;;;;;;;18.71;64.69;98598.06;4997327;28;20029;-83
2021/06/10 02:35:33;;;;;;;4.55;4.15;;;;;;;18.69;64.74;98600.34;4996175;28;20026;-85
2021/06/10 02:38:02;;;;;;;4.90;4.45;;;;;;;18.64;64.76;98601.34;4997388;28;20093;-82
2021/06/10 02:40:41;;;;;;;4.72;4.07;;;;;;;18.61;64.64;98596.63;4997283;28;20511;-86
2021/06/10 02:43:07;;;;;;;4.22;3.83;;;;;;;18.60;64.81;98608.56;4992803;28;20033;-83
2021/06/10 02:45:34;;;;;;;5.20;4.43;;;;;;;18.53;65.18;98606.44;4997275;28;20520;-89
2021/06/10 02:48:01;;;;;;;4.25;3.85;;;;;;;18.53;65.60;98605.66;4997770;28;20417;-87
2021/06/10 02:50:28;;;;;;;3.88;3.58;;;;;;;18.49;65.67;98607.47;4997068;28;20087;-89
2021/06/10 02:52:54;;;;;;;5.88;4.30;;;;;;;18.48;65.79;98600.47;4997917;28;20030;-87
2021/06/10 02:55:20;;;;;;;4.20;3.83;;;;;;;18.51;65.36;98603.28;4996426;28;20041;-86
2021/06/10 02:57:50;;;;;;;3.58;3.28;;;;;;;18.57;65.26;98609.25;4996272;28;20065;-86
2021/06/10 03:00:17;;;;;;;6.32;3.80;;;;;;;18.67;65.06;98608.00;4995873;28;20064;-85
2021/06/10 03:02:44;;;;;;;6.55;3.28;;;;;;;18.79;64.22;98608.00;4995732;28;20038;-86
2021/06/10 03:05:11;;;;;;;4.93;3.63;;;;;;;18.91;63.76;98607.22;4995966;28;20061;-87
2021/06/10 03:07:38;;;;;;;4.47;3.80;;;;;;;19.04;63.13;98597.91;4996233;28;20711;-87
2021/06/10 03:10:07;;;;;;;3.97;3.65;;;;;;;19.26;62.45;98611.28;4996138;28;20089;-82
2021/06/10 03:12:34;;;;;;;4.32;3.50;;;;;;;19.45;62.22;98613.34;4995874;28;20117;-84
2021/06/10 03:15:00;;;;;;;4.18;3.78;;;;;;;19.69;61.33;98612.47;4996649;28;20469;-83
2021/06/10 03:17:26;;;;;;;6.40;4.30;;;;;;;19.96;60.71;98610.06;4994506;28;20100;-81
2021/06/10 03:19:52;;;;;;;6.07;3.83;;;;;;;20.27;59.88;98609.25;4995690;28;20072;-82
2021/06/10 03:22:17;;;;;;;7.30;4.32;;;;;;;20.59;58.90;98611.94;4996682;28;20508;-91
2021/06/10 03:24:44;;;;;;;3.70;3.40;;;;;;;20.91;57.92;98613.81;4995227;28;20033;-88
2021/06/10 03:27:10;;;;;;;4.20;3.28;;;;;;;21.28;57.12;98616.91;4996357;28;20461;-89
2021/06/10 03:29:36;;;;;;;6.47;3.65;;;;;;;21.55;56.00;98614.31;4996084;28;20029;-91
2021/06/10 03:32:03;;;;;;;5.03;3.80;;;;;;;21.90;55.15;98618.88;4996544;28;20029;-80
2021/06/10 03:34:29;;;;;;;4.15;3.75;;;;;;;22.21;54.08;98611.59;4995799;28;20034;-90
2021/06/10 03:36:57;;;;;;;4.95;3.72;;;;;;;22.51;53.16;98615.59;4995433;28;20037;-85
2021/06/10 03:39:23;;;;;;;6.55;3.42;;;;;;;22.88;52.66;98612.19;4996499;28;20064;-90
2021/06/10 03:41:51;;;;;;;5.28;3.30;;;;;;;23.28;51.65;98621.69;5002982;28;20041;-91
2021/06/10 03:44:17;;;;;;;3.35;3.05;;;;;;;23.60;50.45;98617.75;5009275;28;20124;-90
2021/06/10 03:46:42;;;;;;;3.80;3.15;;;;;;;24.04;49.73;98613.50;5008508;28;20457;-89
2021/06/10 03:49:11;;;;;;;5.32;3.65;;;;;;;24.41;48.41;98615.34;5013863;28;20024;-86
2021/06/10 03:51:36;;;;;;;7.68;4.13;;;;;;;24.81;47.28;98619.16;5009478;28;20028;-86
2021/06/10 03:54:04;;;;;;;3.03;2.72;;;;;;;25.13;46.60;98609.53;5013523;28;20022;-84
2021/06/10 03:56:29;;;;;;;3.53;3.22;;;;;;;25.52;45.70;98608.91;5008052;28;20053;-88
2021/06/10 03:58:55;;;;;;;3.45;2.88;;;;;;;25.83;44.98;98609.34;5007237;28;20049;-84
2021/06/10 04:01:20;;;;;;;2.45;2.25;;;;;;;26.16;43.42;98608.22;5013053;28;20083;-79
2021/06/10 04:03:45;;;;;;;2.70;2.50;;;;;;;26.44;43.45;98603.09;5012941;28;20037;-79
2021/06/10 04:06:12;;;;;;;3.58;2.67;;;;;;;26.69;42.27;98600.31;5031208;28;20029;-84
2021/06/10 04:08:37;;;;;;;4.63;2.53;;;;;;;26.83;41.18;98597.56;5012621;28;20041;-82
2021/06/10 04:11:03;;;;;;;4.00;2.53;;;;;;;27.02;41.66;98603.00;5013097;28;20025;-81
2021/06/10 04:13:28;;;;;;;2.65;2.33;;;;;;;27.25;40.78;98607.97;5002962;28;20026;-83
2021/06/10 04:15:54;;;;;;;2.40;2.20;;;;;;;27.40;40.54;98614.19;5001538;28;20046;-80
2021/06/10 04:18:19;;;;;;;2.22;2.03;;;;;;;27.74;40.13;98616.38;4995363;28;20018;-86
2021/06/10 04:20:47;;;;;;;3.08;2.13;;;;;;;28.01;39.70;98613.81;4995100;28;20507;-81
2021/06/10 04:23:12;;;;;;;4.50;1.73;;;;;;;28.20;38.55;98618.00;5012689;28;20049;-86
2021/06/10 04:25:38;;;;;;;2.45;2.25;;;;;;;28.44;38.24;98609.94;4995074;28;20041;-82
2021/06/10 04:28:03;;;;;;;2.83;1.98;;;;;;;28.59;37.44;98614.09;4995198;28;20034;-86
2021/06/10 04:30:28;;;;;;;2.80;2.60;;;;;;;28.72;38.30;98608.91;4995176;28;20026;-90
2021/06/10 04:32:54;;;;;;;3.00;2.20;;;;;;;28.91;37.34;98595.72;4995196;28;20040;-85
2021/06/10 04:35:19;;;;;;;3.53;2.17;;;;;;;29.17;37.17;98601.69;4995236;28;20030;-88
2021/06/10 04:37:45;;;;;;;2.17;2.03;;;;;;;29.26;37.02;98612.19;5011649;28;20843;-87
2021/06/10 04:40:11;;;;;;;2.00;1.90;;;;;;;29.38;36.95;98600.63;4996048;28;20034;-91
2021/06/10 04:42:36;;;;;;;2.08;1.98;;;;;;;29.48;36.54;98610.75;4996415;28;20117;-92
2021/06/10 04:45:03;;;;;;;5.95;1.98;;;;;;;29.50;36.48;98600.09;4996565;28;20112;-91
2021/06/10 04:47:29;;;;;;;5.83;2.40;;;;;;;29.68;36.59;98596.28;5001950;28;20125;-84
2021/06/10 04:49:54;;;;;;;4.13;2.15;;;;;;;29.92;36.21;98604.59;4998079;28;20351;-91
2021/06/10 04:52:19;;;;;;;4.95;2.55;;;;;;;29.96;35.73;98602.59;4995261;28;20484;-85
2021/06/10 04:54:45;;;;;;;2.47;2.13;;;;;;;30.02;35.25;98604.44;4994672;28;20386;-86
2021/06/10 04:57:11;;;;;;;4.90;2.70;;;;;;;29.87;35.85;98600.34;4996196;28;20444;-85
2021/06/10 04:59:36;;;;;;;3.10;2.88;;;;;;;29.99;35.61;98610.00;5011918;28;20030;-85
2021/06/10 05:02:04;;;;;;;3.47;2.40;;;;;;;29.99;36.17;98610.00;5012585;28;20500;-83
2021/06/10 05:04:30;;;;;;;2.20;2.10;;;;;;;30.25;35.53;98615.88;4994087;28;20033;-84
2021/06/10 05:06:55;;;;;;;2.33;1.98;;;;;;;30.13;35.06;98611.78;4994242;28;20029;-85
2021/06/10 05:09:21;;;;;;;2.88;2.25;;;;;;;30.03;35.46;98611.50;4994522;28;20026;-88
2021/06/10 05:11:47;;;;;;;3.15;2.30;;;;;;;30.06;35.49;98612.66;4994399;28;20484;-87
2021/06/10 05:14:12;;;;;;;3.03;2.60;;;;;;;30.05;35.55;98619.38;4994598;28;20036;-87
2021/06/10 05:16:38;;;;;;;3.72;2.65;;;;;;;30.11;36.55;98617.69;4993728;28;20029;-82
2021/06/10 05:19:03;;;;;;;3.30;2.50;;;;;;;30.00;35.84;98609.63;4999661;28;20055;-88
2021/06/10 05:21:29;;;;;;;2.40;2.20;;;;;;;30.02;35.71;98606.44;5013558;28;20030;-87
2021/06/10 05:23:55;;;;;;;3.60;2.25;;;;;;;30.19;35.61;98621.13;5011879;28;20504;-86
2021/06/10 05:26:20;;;;;;;2.28;1.92;;;;;;;30.35;35.45;98620.44;4993508;28;20447;-85
2021/06/10 05:28:46;;;;;;;3.55;2.00;;;;;;;30.39;35.48;98612.88;4994086;28;20032;-87
2021/06/10 05:31:11;;;;;;;2.15;2.05;;;;;;;30.54;35.11;98620.94;5011146;28;20491;-85
2021/06/10 05:33:38;;;;;;;2.33;2.00;;;;;;;30.64;34.99;98623.50;4993156;28;20065;-86
2021/06/10 05:36:04;;;;;;;2.10;2.00;;;;;;;30.78;34.37;98614.16;4993613;28;20022;-85
2021/06/10 05:38:30;;;;;;;3.72;2.50;;;;;;;30.84;34.31;98622.72;4993785;28;20409;-84
2021/06/10 05:40:56;;;;;;;6.53;2.25;;;;;;;31.09;34.11;98614.00;4993220;28;20030;-85
2021/06/10 05:43:23;;;;;;;2.45;2.25;;;;;;;31.30;34.08;98621.03;4993888;28;20047;-84
2021/06/10 05:45:50;;;;;;;1.90;1.80;;;;;;;31.48;33.34;98611.56;4993689;28;20021;-87
2021/06/10 05:48:17;;;;;;;3.88;2.75;;;;;;;31.49;33.07;98615.88;4992945;28;20052;-87
2021/06/10 05:50:43;;;;;;;3.47;1.95;;;;;;;31.50;34.04;98619.44;4993762;28;20030;-90
2021/06/10 05:53:09;;;;;;;6.30;2.40;;;;;;;31.63;33.64;98620.34;4993633;28;20034;-83
2021/06/10 05:55:34;;;;;;;2.42;2.22;;;;;;;31.77;33.34;98622.00;4992709;28;20033;-83
2021/06/10 05:58:00;;;;;;;4.47;1.95;;;;;;;31.84;33.69;98624.59;4993770;28;20401;-83
2021/06/10 06:00:25;;;;;;;2.72;2.08;;;;;;;32.13;33.00;98623.13;4992489;28;20091;-82
2021/06/10 06:02:51;;;;;;;2.40;2.20;;;;;;;32.42;32.54;98617.66;4991859;28;20454;-82
2021/06/10 06:05:16;;;;;;;2.30;2.10;;;;;;;32.60;32.29;98616.44;5007032;28;20097;-82
2021/06/10 06:07:42;;;;;;;2.40;2.25;;;;;;;32.76;31.70;98613.63;4973913;28;20544;-83
2021/06/10 06:10:08;;;;;;;3.08;2.88;;;;;;;32.60;31.91;98610.91;4992301;28;20404;-81
2021/06/10 06:12:34;;;;;;;2.03;1.92;;;;;;;32.63;31.79;98612.78;4993162;28;20026;-82
2021/06/10 06:14:59;;;;;;;2.83;2.47;;;;;;;32.44;31.92;98620.78;4992503;28;20100;-82
2021/06/10 06:17:25;;;;;;;2.72;2.00;;;;;;;32.29;32.02;98625.13;5001557;28;20034;-81
2021/06/10 06:19:50;;;;;;;2.97;2.15;;;;;;;32.02;32.31;98631.69;4973787;28;20026;-81
2021/06/10 06:22:16;;;;;;;2.25;2.05;;;;;;;31.79;32.59;98616.84;4982859;28;20054;-82
2021/06/10 06:24:41;;;;;;;2.28;2.17;;;;;;;31.57;32.96;98620.06;4993107;28;20033;-80
2021/06/10 06:27:08;;;;;;;3.30;2.40;;;;;;;31.25;33.67;98620.75;4993308;28;20030;-81
2021/06/10 06:29:35;;;;;;;2.42;2.22;;;;;;;31.03;33.81;98623.94;4992575;28;20040;-85
2021/06/10 06:32:01;;;;;;;2.13;1.97;;;;;;;30.58;34.42;98627.94;4993515;28;20129;-87
2021/06/10 06:34:26;;;;;;;2.42;2.22;;;;;;;30.39;35.02;98634.94;4993340;28;20026;-86
2021/06/10 06:36:52;;;;;;;3.00;2.75;;;;;;;30.10;36.12;98637.41;4992981;28;20021;-85
2021/06/10 06:39:18;;;;;;;3.13;2.72;;;;;;;29.84;36.59;98637.75;4993521;28;20066;-87
2021/06/10 06:41:43;;;;;;;3.10;2.53;;;;;;;29.78;36.40;98636.69;4985779;28;20026;-84
2021/06/10 06:44:09;;;;;;;2.97;2.78;;;;;;;29.69;36.52;98634.44;4982099;28;20554;-85
2021/06/10 06:46:35;;;;;;;2.63;2.42;;;;;;;29.67;36.47;98639.59;4992831;28;20139;-85
2021/06/10 06:49:01;;;;;;;2.65;2.45;;;;;;;29.45;36.52;98638.34;5001373;28;20663;-84
2021/06/10 06:51:27;;;;;;;3.47;2.53;;;;;;;29.22;37.04;98645.28;4988390;28;20034;-85
2021/06/10 06:53:52;;;;;;;2.60;2.40;;;;;;;29.15;37.34;98640.66;4992709;28;20412;-85
2021/06/10 06:56:18;;;;;;;2.22;2.05;;;;;;;29.04;37.57;98648.25;4993142;28;20026;-86
2021/06/10 06:58:44;;;;;;;3.58;2.53;;;;;;;28.66;37.96;98646.28;4992633;28;20556;-84
2021/06/10 07:01:09;;;;;;;2.90;2.28;;;;;;;28.57;38.25;98656.97;4992627;28;20103;-83
2021/06/10 07:03:35;;;;;;;2.60;2.40;;;;;;;28.43;38.69;98650.41;4992630;28;20083;-86
2021/06/10 07:06:00;;;;;;;2.63;2.42;;;;;;;28.42;38.52;98654.34;4993168;28;20481;-85
2021/06/10 07:08:29;;;;;;;3.38;2.28;;;;;;;28.38;38.46;98655.56;4992322;28;20033;-87
2021/06/10 07:10:55;;;;;;;3.42;2.50;;;;;;;28.41;38.34;98652.00;4992187;28;20121;-83
2021/06/10 07:13:25;;;;;;;2.65;2.45;;;;;;;28.46;38.57;98654.31;4991323;28;20052;-83
2021/06/10 07:15:51;;;;;;;3.63;2.25;;;;;;;28.42;38.07;98659.06;4992448;28;20030;-83
2021/06/10 07:18:17;;;;;;;2.50;2.30;;;;;;;28.28;38.56;98666.25;4996560;28;20472;-83
2021/06/10 07:20:42;;;;;;;3.95;2.95;;;;;;;28.15;37.71;98665.19;4994311;28;20060;-85
2021/06/10 07:23:08;;;;;;;3.42;2.53;;;;;;;28.04;38.18;98661.69;5009469;28;20074;-84
2021/06/10 07:25:33;;;;;;;2.65;2.42;;;;;;;27.99;39.32;98664.88;4993484;28;20496;-83
2021/06/10 07:27:59;;;;;;;2.17;2.03;;;;;;;27.88;38.92;98664.94;4995573;28;20026;-85
2021/06/10 07:30:24;;;;;;;4.22;2.33;;;;;;;27.77;39.34;98662.25;4996227;28;20408;-83
2021/06/10 07:32:50;;;;;;;2.33;2.22;;;;;;;27.59;38.55;98665.88;4996079;28;20109;-85
2021/06/10 07:35:20;;;;;;;2.47;2.28;;;;;;;27.45;37.90;98664.00;4997269;28;20029;-87
2021/06/10 07:37:47;;;;;;;2.22;2.03;;;;;;;27.34;39.64;98668.72;4995110;28;20030;-82
2021/06/10 07:40:13;;;;;;;3.63;2.72;;;;;;;27.27;39.53;98683.25;4996061;28;20052;-82
2021/06/10 07:42:38;;;;;;;3.08;2.78;;;;;;;27.08;39.00;98670.00;4994306;28;20480;-80
2021/06/10 07:45:04;;;;;;;2.92;2.58;;;;;;;27.02;40.21;98677.84;4994442;28;20408;-79
2021/06/10 07:47:30;;;;;;;2.70;2.50;;;;;;;27.04;39.92;98674.69;4995841;28;20485;-79
2021/06/10 07:49:55;;;;;;;3.55;2.83;;;;;;;27.14;39.88;98679.38;4995596;28;20032;-79
2021/06/10 07:52:21;;;;;;;3.03;2.60;;;;;;;27.03;39.78;98679.41;4995959;28;20049;-79
2021/06/10 07:54:46;;;;;;;2.72;2.50;;;;;;;27.09;41.13;98679.81;4995566;28;20033;-80
2021/06/10 07:57:12;;;;;;;6.00;2.15;;;;;;;27.12;39.83;98682.53;4995609;28;20052;-80
2021/06/10 07:59:37;;;;;;;2.30;2.10;;;;;;;27.10;38.49;98686.84;5011786;28;20065;-79
2021/06/10 08:02:03;;;;;;;2.35;2.15;;;;;;;27.11;38.74;98685.66;4995902;28;20574;-80
2021/06/10 08:04:30;;;;;;;1.88;1.70;;;;;;;27.16;38.90;98677.81;4995058;28;20062;-80
2021/06/10 08:06:56;;;;;;;2.45;2.25;;;;;;;27.12;39.44;98677.06;4995125;28;20029;-79
2021/06/10 08:09:21;;;;;;;6.38;2.17;;;;;;;27.14;39.48;98685.66;4995596;28;20112;-80
2021/06/10 08:11:47;;;;;;;2.50;2.30;;;;;;;27.03;38.17;98684.91;4995274;28;20034;-80
2021/06/10 08:14:12;;;;;;;2.90;2.00;;;;;;;27.02;39.26;98691.56;4995370;28;20025;-80
2021/06/10 08:16:38;;;;;;;2.15;1.95;;;;;;;27.02;38.96;98694.31;4995426;28;20088;-80
2021/06/10 08:19:04;;;;;;;3.42;2.13;;;;;;;26.98;39.42;98693.56;4995492;28;20029;-80
2021/06/10 08:21:30;;;;;;;2.75;2.40;;;;;;;27.08;39.32;98687.25;4995274;28;20448;-81
2021/06/10 08:23:56;;;;;;;4.82;2.50;;;;;;;27.04;39.11;98693.91;4995077;28;20119;-80
2021/06/10 08:26:22;;;;;;;3.08;2.53;;;;;;;27.05;40.62;98688.03;4995370;28;20053;-80
2021/06/10 08:28:47;;;;;;;5.38;2.17;;;;;;;27.15;40.06;98683.72;4994329;28;20556;-80
2021/06/10 08:31:15;;;;;;;2.47;2.28;;;;;;;27.24;40.34;98688.78;4995507;28;20141;-80
2021/06/10 08:33:41;;;;;;;4.28;2.35;;;;;;;27.25;39.82;98687.59;4994922;28;20030;-80
2021/06/10 08:36:07;;;;;;;2.58;2.38;;;;;;;27.29;41.02;98686.41;5012712;28;20030;-80
2021/06/10 08:38:34;;;;;;;4.13;2.08;;;;;;;27.28;39.59;98686.78;4994946;28;20084;-80
2021/06/10 08:41:03;;;;;;;2.42;2.22;;;;;;;27.26;39.89;98686.41;5012402;28;20033;-80
2021/06/10 08:43:29;;;;;;;1.80;1.70;;;;;;;27.21;38.93;98690.34;4994763;28;20041;-80
2021/06/10 08:46:03;;;;;;;4.70;2.28;;;;;;;27.22;39.00;98688.38;4978775;28;20058;-80
2021/06/10 08:48:42;;;;;;;3.45;2.45;;;;;;;27.17;39.95;98684.88;5010918;28;20050;-80
2021/06/10 08:51:09;;;;;;;3.90;2.63;;;;;;;27.17;40.48;98690.34;4994722;28;20048;-79
2021/06/10 08:53:36;;;;;;;2.10;2.00;;;;;;;27.19;39.37;98683.69;4994698;28;20062;-80
2021/06/10 08:56:02;;;;;;;2.20;2.05;;;;;;;27.12;39.88;98690.78;4994886;28;20095;-80
2021/06/10 08:58:29;;;;;;;4.68;2.40;;;;;;;27.09;38.98;98691.56;4994782;28;20029;-80
2021/06/10 09:00:55;;;;;;;3.10;2.22;;;;;;;26.98;40.05;98680.59;4994386;28;20124;-79
2021/06/10 09:03:31;;;;;;;3.83;2.30;;;;;;;26.93;39.67;98681.00;4994615;28;20041;-80
2021/06/10 09:06:12;;;;;;;4.70;2.53;;;;;;;26.94;41.19;98673.56;4994347;28;20069;-80
2021/06/10 09:08:39;;;;;;;3.63;2.63;;;;;;;26.92;39.57;98671.22;4994170;28;20076;-80
2021/06/10 09:11:12;;;;;;;2.70;2.50;;;;;;;26.91;40.56;98666.91;4994582;28;20061;-80
2021/06/10 09:13:51;;;;;;;2.08;1.92;;;;;;;26.94;40.28;98674.34;5010556;28;20586;-80
2021/06/10 09:16:27;;;;;;;2.47;2.28;;;;;;;26.98;40.47;98679.84;4994364;28;20030;-80
2021/06/10 09:19:16;;;;;;;2.38;2.17;;;;;;;27.00;40.19;98669.22;4994040;28;20512;-81
2021/06/10 09:21:56;;;;;;;2.63;2.42;;;;;;;27.05;40.14;98679.81;5010112;28;20030;-82
2021/06/10 09:24:35;;;;;;;2.22;2.13;;;;;;;27.05;40.36;98668.03;4989660;28;20120;-77
2021/06/10 09:27:06;;;;;;;2.50;2.30;;;;;;;27.01;40.14;98670.78;4979204;28;20129;-79
2021/06/10 09:29:39;;;;;;;3.97;1.80;;;;;;;27.04;40.25;98675.50;5010124;28;20523;-77
2021/06/10 09:32:10;;;;;;;3.05;2.45;;;;;;;27.01;40.77;98662.56;5000942;28;20034;-81
2021/06/10 09:34:54;;;;;;;2.60;2.40;;;;;;;27.08;40.37;98665.28;5011733;28;20034;-78
2021/06/10 09:37:34;;;;;;;1.88;1.77;;;;;;;27.15;40.35;98661.75;5004764;28;20030;-78
2021/06/10 09:40:12;;;;;;;1.90;1.80;;;;;;;27.18;39.48;98663.69;4991197;28;20033;-83
2021/06/10 09:42:40;;;;;;;2.17;1.98;;;;;;;27.23;39.13;98657.78;4974370;28;20026;-81
2021/06/10 09:45:08;;;;;;;2.65;2.45;;;;;;;27.28;38.45;98664.81;4976867;28;20054;-85
2021/06/10 09:47:53;;;;;;;2.78;1.88;;;;;;;27.20;38.88;98655.84;4987453;28;20120;-81
2021/06/10 09:50:44;;;;;;;3.33;3.13;;;;;;;27.15;39.70;98651.53;4993893;28;20033;-83
2021/06/10 09:53:13;;;;;;;5.10;2.40;;;;;;;27.10;41.43;98653.91;4993578;28;20029;-81
2021/06/10 09:56:05;;;;;;;2.15;2.05;;;;;;;27.07;41.02;98651.97;5011232;28;20550;-88
2021/06/10 09:58:41;;;;;;;2.63;2.42;;;;;;;27.07;41.98;98641.75;4984119;28;20034;-84
2021/06/10 10:01:16;;;;;;;3.30;2.88;;;;;;;27.06;40.58;98637.47;4977162;28;20033;-81
2021/06/10 10:03:44;;;;;;;2.55;2.35;;;;;;;27.10;41.05;98634.69;4991767;28;20041;-85
2021/06/10 10:06:22;;;;;;;2.53;2.33;;;;;;;27.11;40.90;98630.78;4985964;28;20026;-79
2021/06/10 10:08:51;;;;;;;4.65;2.58;;;;;;;27.17;39.67;98629.97;4991510;28;20026;-82
2021/06/10 10:11:18;;;;;;;3.22;2.75;;;;;;;27.14;38.57;98632.72;4993432;28;20033;-82
2021/06/10 10:13:46;;;;;;;4.47;3.03;;;;;;;27.09;38.77;98630.41;4993390;28;20054;-83
2021/06/10 10:16:12;;;;;;;3.30;3.03;;;;;;;27.14;40.84;98628.00;4993507;28;20029;-81
2021/06/10 10:18:39;;;;;;;2.83;2.63;;;;;;;27.19;39.12;98629.56;4992793;28;20408;-84
2021/06/10 10:21:08;;;;;;;3.72;3.42;;;;;;;27.26;40.57;98615.81;4977423;28;20405;-85
2021/06/10 10:23:34;;;;;;;3.13;2.53;;;;;;;27.23;37.39;98613.09;4991355;28;20054;-80
2021/06/10 10:26:02;;;;;;;3.22;2.45;;;;;;;27.21;36.87;98601.72;4979962;28;20217;-81
2021/06/10 10:28:30;;;;;;;3.05;2.40;;;;;;;27.16;37.90;98611.16;5009712;28;20056;-83
2021/06/10 10:30:57;;;;;;;2.95;2.75;;;;;;;27.16;34.25;98616.66;4989672;28;20117;-88
2021/06/10 10:33:25;;;;;;;5.15;3.63;;;;;;;27.11;35.91;98612.34;4992754;28;20034;-86
2021/06/10 10:36:02;;;;;;;3.55;3.25;;;;;;;27.21;36.00;98612.69;4992851;28;20036;-88
2021/06/10 10:38:32;;;;;;;3.00;2.80;;;;;;;27.26;35.63;98610.31;4992723;28;20116;-88
2021/06/10 10:41:02;;;;;;;3.58;2.33;;;;;;;27.34;36.27;98608.31;4976835;28;20030;-87
2021/06/10 10:43:29;;;;;;;3.25;2.50;;;;;;;27.43;36.91;98602.44;4973799;28;20030;-84
2021/06/10 10:46:21;;;;;;;2.70;2.50;;;;;;;27.36;36.07;98605.19;4990685;28;20124;-82
2021/06/10 10:48:48;;;;;;;2.10;1.90;;;;;;;27.21;36.26;98613.50;4991484;28;20125;-85
2021/06/10 10:51:37;;;;;;;2.15;2.05;;;;;;;27.00;34.67;98598.69;4991837;28;20533;-84
2021/06/10 10:54:10;;;;;;;2.45;2.25;;;;;;;26.87;36.54;98596.75;5012757;28;20041;-84
2021/06/10 10:56:38;;;;;;;2.20;2.10;;;;;;;26.73;34.40;98603.03;4987530;28;20103;-85
2021/06/10 10:59:16;;;;;;;2.78;2.58;;;;;;;26.63;35.88;98591.69;4992259;28;20616;-84
2021/06/10 11:02:00;;;;;;;2.22;2.13;;;;;;;26.61;36.44;98599.56;4988396;28;20105;-84
2021/06/10 11:04:49;;;;;;;3.72;3.40;;;;;;;26.66;36.49;98607.38;4981683;28;20050;-84
2021/06/10 11:07:32;;;;;;;2.97;2.78;;;;;;;26.62;35.77;98590.16;4987040;28;20060;-84
2021/06/10 11:09:58;;;;;;;3.63;3.33;;;;;;;26.64;36.62;98581.53;4977758;28;20034;-80
2021/06/10 11:12:42;;;;;;;3.00;2.78;;;;;;;26.68;36.35;98569.38;4984742;28;20103;-83
2021/06/10 11:16:00;;;;;;;5.80;5.30;;;;;;;26.80;36.10;98570.13;4994418;28;20481;-81
2021/06/10 11:18:40;;;;;;;4.05;3.72;;;;;;;26.94;37.61;98567.34;4950816;28;20070;-81
2021/06/10 11:21:07;;;;;;;4.50;3.05;;;;;;;27.15;37.25;98573.91;4989358;28;20038;-82
2021/06/10 11:23:33;;;;;;;4.95;2.88;;;;;;;27.30;37.66;98561.66;4994846;28;20058;-82
2021/06/10 11:26:02;;;;;;;3.38;3.08;;;;;;;27.47;38.81;98562.75;4990554;28;20513;-82
2021/06/10 11:28:34;;;;;;;5.75;2.95;;;;;;;27.54;36.93;98559.22;4986720;28;20077;-83
2021/06/10 11:31:20;;;;;;;4.40;3.72;;;;;;;27.52;36.79;98563.53;4979998;28;20484;-75
2021/06/10 11:33:48;;;;;;;4.03;3.63;;;;;;;27.47;36.96;98562.00;5007815;28;20125;-75
2021/06/10 11:36:15;;;;;;;5.95;3.67;;;;;;;27.39;36.60;98561.25;4995286;28;20033;-78
2021/06/10 11:38:48;;;;;;;3.25;2.97;;;;;;;27.27;35.61;98561.69;4994260;28;20053;-84
2021/06/10 11:41:17;;;;;;;2.80;2.60;;;;;;;27.15;36.23;98565.69;4981236;28;20041;-83